sensor_id;sensor_type;location;lat;lon;timestamp;temperature;humidity
1415;DHT22;702;49.466;11.086;2023-07-22T00:01:50;16.80;86.50
1415;DHT22;702;49.466;11.086;2023-07-22T00:04:18;16.50;87.40
1415;DHT22;702;49.466;11.086;2023-07-22T00:06:46;16.30;87.90
1415;DHT22;702;49.466;11.086;2023-07-22T00:09:13;16.20;88.70
1415;DHT22;702;49.466;11.086;2023-07-22T00:11:41;16.00;89.40
1415;DHT22;702;49.466;11.086;2023-07-22T00:14:08;15.80;90.10
1415;DHT22;702;49.466;11.086;2023-07-22T00:16:36;15.70;90.70
1415;DHT22;702;49.466;11.086;2023-07-22T00:19:03;15.60;91.20
1415;DHT22;702;49.466;11.086;2023-07-22T00:21:34;15.50;91.70
1415;DHT22;702;49.466;11.086;2023-07-22T00:24:01;15.40;91.80
1415;DHT22;702;49.466;11.086;2023-07-22T00:26:30;15.40;92.30
1415;DHT22;702;49.466;11.086;2023-07-22T00:28:57;15.20;92.40
1415;DHT22;702;49.466;11.086;2023-07-22T00:31:25;15.30;93.50
1415;DHT22;702;49.466;11.086;2023-07-22T00:33:53;15.30;93.10
1415;DHT22;702;49.466;11.086;2023-07-22T00:36:20;15.20;93.30
1415;DHT22;702;49.466;11.086;2023-07-22T00:38:49;15.20;93.20
1415;DHT22;702;49.466;11.086;2023-07-22T00:41:16;15.10;93.60
1415;DHT22;702;49.466;11.086;2023-07-22T00:43:43;15.00;93.70
1415;DHT22;702;49.466;11.086;2023-07-22T00:46:11;15.20;94.40
1415;DHT22;702;49.466;11.086;2023-07-22T00:48:38;15.40;93.50
1415;DHT22;702;49.466;11.086;2023-07-22T00:51:06;15.80;93.00
1415;DHT22;702;49.466;11.086;2023-07-22T00:53:34;16.00;91.10
1415;DHT22;702;49.466;11.086;2023-07-22T00:56:02;15.80;90.90
1415;DHT22;702;49.466;11.086;2023-07-22T00:58:31;15.70;91.20
1415;DHT22;702;49.466;11.086;2023-07-22T01:00:58;15.50;91.60
1415;DHT22;702;49.466;11.086;2023-07-22T01:03:25;15.40;91.90
1415;DHT22;702;49.466;11.086;2023-07-22T01:05:54;15.40;92.60
1415;DHT22;702;49.466;11.086;2023-07-22T01:08:22;15.50;92.70
1415;DHT22;702;49.466;11.086;2023-07-22T01:10:50;15.70;91.60
1415;DHT22;702;49.466;11.086;2023-07-22T01:13:18;16.00;91.50
1415;DHT22;702;49.466;11.086;2023-07-22T01:15:45;16.20;90.90
1415;DHT22;702;49.466;11.086;2023-07-22T01:18:13;16.80;89.70
1415;DHT22;702;49.466;11.086;2023-07-22T01:20:40;17.10;87.50
1415;DHT22;702;49.466;11.086;2023-07-22T01:23:10;16.90;86.90
1415;DHT22;702;49.466;11.086;2023-07-22T01:25:37;16.80;86.90
1415;DHT22;702;49.466;11.086;2023-07-22T01:28:09;16.30;87.80
1415;DHT22;702;49.466;11.086;2023-07-22T01:30:37;16.10;90.00
1415;DHT22;702;49.466;11.086;2023-07-22T01:33:05;16.10;89.70
1415;DHT22;702;49.466;11.086;2023-07-22T01:35:32;15.90;90.30
1415;DHT22;702;49.466;11.086;2023-07-22T01:38:00;15.70;90.60
1415;DHT22;702;49.466;11.086;2023-07-22T01:40:28;15.60;90.80
1415;DHT22;702;49.466;11.086;2023-07-22T01:42:57;15.40;91.20
1415;DHT22;702;49.466;11.086;2023-07-22T01:45:24;15.50;91.70
1415;DHT22;702;49.466;11.086;2023-07-22T01:47:51;15.30;91.60
1415;DHT22;702;49.466;11.086;2023-07-22T01:50:19;15.30;92.20
1415;DHT22;702;49.466;11.086;2023-07-22T01:52:46;15.20;91.80
1415;DHT22;702;49.466;11.086;2023-07-22T01:55:14;15.20;91.70
1415;DHT22;702;49.466;11.086;2023-07-22T01:57:43;15.10;91.80
1415;DHT22;702;49.466;11.086;2023-07-22T02:00:12;14.90;92.50
1415;DHT22;702;49.466;11.086;2023-07-22T02:02:41;15.00;94.10
1415;DHT22;702;49.466;11.086;2023-07-22T02:05:09;15.10;92.60
1415;DHT22;702;49.466;11.086;2023-07-22T02:07:36;15.00;92.40
1415;DHT22;702;49.466;11.086;2023-07-22T02:10:05;15.00;92.60
1415;DHT22;702;49.466;11.086;2023-07-22T02:12:33;14.80;92.90
1415;DHT22;702;49.466;11.086;2023-07-22T02:15:02;14.80;92.70
1415;DHT22;702;49.466;11.086;2023-07-22T02:17:29;14.80;93.10
1415;DHT22;702;49.466;11.086;2023-07-22T02:19:58;14.70;93.80
1415;DHT22;702;49.466;11.086;2023-07-22T02:22:26;14.60;93.90
1415;DHT22;702;49.466;11.086;2023-07-22T02:24:53;14.60;94.00
1415;DHT22;702;49.466;11.086;2023-07-22T02:27:20;14.60;93.70
1415;DHT22;702;49.466;11.086;2023-07-22T02:29:47;14.70;93.80
1415;DHT22;702;49.466;11.086;2023-07-22T02:32:17;14.60;93.60
1415;DHT22;702;49.466;11.086;2023-07-22T02:34:44;14.60;93.70
1415;DHT22;702;49.466;11.086;2023-07-22T02:37:12;14.60;93.70
1415;DHT22;702;49.466;11.086;2023-07-22T02:39:39;14.60;94.40
1415;DHT22;702;49.466;11.086;2023-07-22T02:42:08;14.90;94.00
1415;DHT22;702;49.466;11.086;2023-07-22T02:44:36;14.90;92.80
1415;DHT22;702;49.466;11.086;2023-07-22T02:47:03;14.90;92.80
1415;DHT22;702;49.466;11.086;2023-07-22T02:49:33;14.80;93.00
1415;DHT22;702;49.466;11.086;2023-07-22T02:52:01;14.70;93.10
1415;DHT22;702;49.466;11.086;2023-07-22T02:54:29;14.60;93.10
1415;DHT22;702;49.466;11.086;2023-07-22T02:56:56;14.50;93.30
1415;DHT22;702;49.466;11.086;2023-07-22T02:59:23;14.40;94.00
1415;DHT22;702;49.466;11.086;2023-07-22T03:01:51;14.30;94.50
1415;DHT22;702;49.466;11.086;2023-07-22T03:04:18;14.30;94.80
1415;DHT22;702;49.466;11.086;2023-07-22T03:06:48;14.20;95.40
1415;DHT22;702;49.466;11.086;2023-07-22T03:09:15;14.20;95.20
1415;DHT22;702;49.466;11.086;2023-07-22T03:11:43;14.10;95.70
1415;DHT22;702;49.466;11.086;2023-07-22T03:14:10;14.10;95.80
1415;DHT22;702;49.466;11.086;2023-07-22T03:16:37;14.00;95.60
1415;DHT22;702;49.466;11.086;2023-07-22T03:19:05;13.90;96.00
1415;DHT22;702;49.466;11.086;2023-07-22T03:21:33;13.80;97.20
1415;DHT22;702;49.466;11.086;2023-07-22T03:24:02;13.80;97.90
1415;DHT22;702;49.466;11.086;2023-07-22T03:26:31;13.70;97.60
1415;DHT22;702;49.466;11.086;2023-07-22T03:28:59;13.60;98.50
1415;DHT22;702;49.466;11.086;2023-07-22T03:31:26;13.50;99.70
1415;DHT22;702;49.466;11.086;2023-07-22T03:33:54;13.50;99.90
1415;DHT22;702;49.466;11.086;2023-07-22T03:36:21;13.50;99.90
1415;DHT22;702;49.466;11.086;2023-07-22T03:39:02;13.60;99.90
1415;DHT22;702;49.466;11.086;2023-07-22T03:41:32;13.60;99.90
1415;DHT22;702;49.466;11.086;2023-07-22T03:43:59;13.90;99.90
1415;DHT22;702;49.466;11.086;2023-07-22T03:46:27;14.30;97.00
1415;DHT22;702;49.466;11.086;2023-07-22T03:48:55;14.30;96.50
1415;DHT22;702;49.466;11.086;2023-07-22T03:51:22;14.50;95.50
1415;DHT22;702;49.466;11.086;2023-07-22T03:53:49;14.40;94.60
1415;DHT22;702;49.466;11.086;2023-07-22T03:56:19;14.30;95.10
1415;DHT22;702;49.466;11.086;2023-07-22T03:58:49;14.20;95.30
1415;DHT22;702;49.466;11.086;2023-07-22T04:01:16;14.20;95.70
1415;DHT22;702;49.466;11.086;2023-07-22T04:03:44;14.30;95.60
1415;DHT22;702;49.466;11.086;2023-07-22T04:06:11;14.50;95.00
1415;DHT22;702;49.466;11.086;2023-07-22T04:08:39;14.60;93.80
1415;DHT22;702;49.466;11.086;2023-07-22T04:11:06;14.60;93.80
1415;DHT22;702;49.466;11.086;2023-07-22T04:13:35;14.60;93.80
1415;DHT22;702;49.466;11.086;2023-07-22T04:16:02;14.60;93.60
1415;DHT22;702;49.466;11.086;2023-07-22T04:18:30;14.70;93.60
1415;DHT22;702;49.466;11.086;2023-07-22T04:21:01;15.10;94.70
1415;DHT22;702;49.466;11.086;2023-07-22T04:23:28;15.20;92.60
1415;DHT22;702;49.466;11.086;2023-07-22T04:25:56;15.40;91.10
1415;DHT22;702;49.466;11.086;2023-07-22T04:28:24;15.60;91.50
1415;DHT22;702;49.466;11.086;2023-07-22T04:30:57;16.00;89.50
1415;DHT22;702;49.466;11.086;2023-07-22T04:33:26;16.30;88.40
1415;DHT22;702;49.466;11.086;2023-07-22T04:35:55;16.20;87.10
1415;DHT22;702;49.466;11.086;2023-07-22T04:38:24;16.00;87.30
1415;DHT22;702;49.466;11.086;2023-07-22T04:40:52;16.50;87.60
1415;DHT22;702;49.466;11.086;2023-07-22T04:43:19;16.50;85.80
1415;DHT22;702;49.466;11.086;2023-07-22T04:45:46;16.30;86.50
1415;DHT22;702;49.466;11.086;2023-07-22T04:48:18;16.50;86.90
1415;DHT22;702;49.466;11.086;2023-07-22T04:50:46;16.40;86.70
1415;DHT22;702;49.466;11.086;2023-07-22T04:53:14;16.60;85.20
1415;DHT22;702;49.466;11.086;2023-07-22T04:55:42;16.50;85.30
1415;DHT22;702;49.466;11.086;2023-07-22T04:58:11;16.60;85.30
1415;DHT22;702;49.466;11.086;2023-07-22T05:00:38;17.00;85.50
1415;DHT22;702;49.466;11.086;2023-07-22T05:03:08;17.60;83.60
1415;DHT22;702;49.466;11.086;2023-07-22T05:05:36;18.20;81.60
1415;DHT22;702;49.466;11.086;2023-07-22T05:08:04;18.10;81.40
1415;DHT22;702;49.466;11.086;2023-07-22T05:10:33;17.80;81.60
1415;DHT22;702;49.466;11.086;2023-07-22T05:13:00;17.60;82.40
1415;DHT22;702;49.466;11.086;2023-07-22T05:15:27;17.40;82.80
1415;DHT22;702;49.466;11.086;2023-07-22T05:17:55;17.30;82.60
1415;DHT22;702;49.466;11.086;2023-07-22T05:20:22;17.10;82.90
1415;DHT22;702;49.466;11.086;2023-07-22T05:22:51;17.00;83.30
1415;DHT22;702;49.466;11.086;2023-07-22T05:25:18;16.80;83.60
1415;DHT22;702;49.466;11.086;2023-07-22T05:27:46;16.90;84.20
1415;DHT22;702;49.466;11.086;2023-07-22T05:30:13;17.40;83.90
1415;DHT22;702;49.466;11.086;2023-07-22T05:32:41;17.40;82.70
1415;DHT22;702;49.466;11.086;2023-07-22T05:35:08;17.40;82.70
1415;DHT22;702;49.466;11.086;2023-07-22T05:37:35;17.50;82.80
1415;DHT22;702;49.466;11.086;2023-07-22T05:40:08;17.60;83.10
1415;DHT22;702;49.466;11.086;2023-07-22T05:42:36;17.90;82.00
1415;DHT22;702;49.466;11.086;2023-07-22T05:45:04;18.40;81.60
1415;DHT22;702;49.466;11.086;2023-07-22T05:47:32;18.30;80.90
1415;DHT22;702;49.466;11.086;2023-07-22T05:49:59;18.20;80.50
1415;DHT22;702;49.466;11.086;2023-07-22T05:52:27;18.10;80.40
1415;DHT22;702;49.466;11.086;2023-07-22T05:54:55;17.50;81.20
1415;DHT22;702;49.466;11.086;2023-07-22T05:57:28;17.20;82.70
1415;DHT22;702;49.466;11.086;2023-07-22T05:59:55;17.10;82.50
1415;DHT22;702;49.466;11.086;2023-07-22T06:02:22;17.20;83.30
1415;DHT22;702;49.466;11.086;2023-07-22T06:04:50;17.30;82.40
1415;DHT22;702;49.466;11.086;2023-07-22T06:07:17;17.20;83.10
1415;DHT22;702;49.466;11.086;2023-07-22T06:09:44;17.40;83.00
1415;DHT22;702;49.466;11.086;2023-07-22T06:12:11;17.80;82.10
1415;DHT22;702;49.466;11.086;2023-07-22T06:14:40;17.70;81.80
1415;DHT22;702;49.466;11.086;2023-07-22T06:17:07;17.40;81.70
1415;DHT22;702;49.466;11.086;2023-07-22T06:19:35;17.20;82.10
1415;DHT22;702;49.466;11.086;2023-07-22T06:22:02;17.10;82.20
1415;DHT22;702;49.466;11.086;2023-07-22T06:24:29;17.00;82.60
1415;DHT22;702;49.466;11.086;2023-07-22T06:26:57;16.90;83.10
1415;DHT22;702;49.466;11.086;2023-07-22T06:29:24;16.90;83.20
1415;DHT22;702;49.466;11.086;2023-07-22T06:31:52;16.80;83.20
1415;DHT22;702;49.466;11.086;2023-07-22T06:34:20;16.90;83.20
1415;DHT22;702;49.466;11.086;2023-07-22T06:36:47;16.90;83.30
1415;DHT22;702;49.466;11.086;2023-07-22T06:39:14;16.80;83.40
1415;DHT22;702;49.466;11.086;2023-07-22T06:41:41;16.70;83.10
1415;DHT22;702;49.466;11.086;2023-07-22T06:44:08;16.80;83.40
1415;DHT22;702;49.466;11.086;2023-07-22T06:46:35;16.80;83.10
1415;DHT22;702;49.466;11.086;2023-07-22T06:49:04;16.80;83.30
1415;DHT22;702;49.466;11.086;2023-07-22T06:51:31;16.80;83.00
1415;DHT22;702;49.466;11.086;2023-07-22T06:53:59;16.80;83.30
1415;DHT22;702;49.466;11.086;2023-07-22T06:56:26;16.70;83.60
1415;DHT22;702;49.466;11.086;2023-07-22T06:58:54;16.70;83.40
1415;DHT22;702;49.466;11.086;2023-07-22T07:01:23;16.70;83.30
1415;DHT22;702;49.466;11.086;2023-07-22T07:03:50;16.60;83.70
1415;DHT22;702;49.466;11.086;2023-07-22T07:06:19;16.60;83.80
1415;DHT22;702;49.466;11.086;2023-07-22T07:08:46;16.80;83.80
1415;DHT22;702;49.466;11.086;2023-07-22T07:11:14;17.10;84.00
1415;DHT22;702;49.466;11.086;2023-07-22T07:13:42;17.30;83.70
1415;DHT22;702;49.466;11.086;2023-07-22T07:16:27;17.70;83.20
1415;DHT22;702;49.466;11.086;2023-07-22T07:18:57;17.70;82.80
1415;DHT22;702;49.466;11.086;2023-07-22T07:21:26;17.70;82.10
1415;DHT22;702;49.466;11.086;2023-07-22T07:23:54;17.80;81.30
1415;DHT22;702;49.466;11.086;2023-07-22T07:26:22;17.70;80.90
1415;DHT22;702;49.466;11.086;2023-07-22T07:28:49;17.60;81.30
1415;DHT22;702;49.466;11.086;2023-07-22T07:31:17;17.70;81.00
1415;DHT22;702;49.466;11.086;2023-07-22T07:33:45;17.50;80.60
1415;DHT22;702;49.466;11.086;2023-07-22T07:36:12;17.50;80.50
1415;DHT22;702;49.466;11.086;2023-07-22T07:38:41;17.50;79.60
1415;DHT22;702;49.466;11.086;2023-07-22T07:41:10;17.30;79.60
1415;DHT22;702;49.466;11.086;2023-07-22T07:43:38;17.20;80.20
1415;DHT22;702;49.466;11.086;2023-07-22T07:46:12;17.20;81.00
1415;DHT22;702;49.466;11.086;2023-07-22T07:48:43;17.30;80.70
1415;DHT22;702;49.466;11.086;2023-07-22T07:51:12;17.30;80.00
1415;DHT22;702;49.466;11.086;2023-07-22T07:53:41;17.30;79.60
1415;DHT22;702;49.466;11.086;2023-07-22T07:56:10;17.40;79.30
1415;DHT22;702;49.466;11.086;2023-07-22T07:58:38;17.80;78.50
1415;DHT22;702;49.466;11.086;2023-07-22T08:01:06;17.90;78.50
1415;DHT22;702;49.466;11.086;2023-07-22T08:03:35;17.90;78.50
1415;DHT22;702;49.466;11.086;2023-07-22T08:06:03;17.80;79.10
1415;DHT22;702;49.466;11.086;2023-07-22T08:08:32;17.70;78.60
1415;DHT22;702;49.466;11.086;2023-07-22T08:11:02;17.50;78.30
1415;DHT22;702;49.466;11.086;2023-07-22T08:13:30;17.40;78.60
1415;DHT22;702;49.466;11.086;2023-07-22T08:16:00;17.70;78.70
1415;DHT22;702;49.466;11.086;2023-07-22T08:18:28;18.30;78.10
1415;DHT22;702;49.466;11.086;2023-07-22T08:20:56;18.60;77.70
1415;DHT22;702;49.466;11.086;2023-07-22T08:23:24;18.90;76.70
1415;DHT22;702;49.466;11.086;2023-07-22T08:25:51;19.00;77.10
1415;DHT22;702;49.466;11.086;2023-07-22T08:28:20;19.50;76.30
1415;DHT22;702;49.466;11.086;2023-07-22T08:30:48;20.00;75.00
1415;DHT22;702;49.466;11.086;2023-07-22T08:33:15;20.40;73.70
1415;DHT22;702;49.466;11.086;2023-07-22T08:35:43;20.50;72.80
1415;DHT22;702;49.466;11.086;2023-07-22T08:38:11;20.70;70.60
1415;DHT22;702;49.466;11.086;2023-07-22T08:40:39;21.00;70.40
1415;DHT22;702;49.466;11.086;2023-07-22T08:43:08;21.10;70.20
1415;DHT22;702;49.466;11.086;2023-07-22T08:45:39;20.70;70.80
1415;DHT22;702;49.466;11.086;2023-07-22T08:48:08;20.60;70.50
1415;DHT22;702;49.466;11.086;2023-07-22T08:50:46;20.90;70.40
1415;DHT22;702;49.466;11.086;2023-07-22T08:53:17;21.10;69.60
1415;DHT22;702;49.466;11.086;2023-07-22T08:55:45;21.60;69.10
1415;DHT22;702;49.466;11.086;2023-07-22T08:58:14;21.70;68.20
1415;DHT22;702;49.466;11.086;2023-07-22T09:00:43;22.40;67.30
1415;DHT22;702;49.466;11.086;2023-07-22T09:03:11;22.30;66.00
1415;DHT22;702;49.466;11.086;2023-07-22T09:05:39;22.60;65.20
1415;DHT22;702;49.466;11.086;2023-07-22T09:08:07;22.90;64.60
1415;DHT22;702;49.466;11.086;2023-07-22T09:10:35;23.00;64.10
1415;DHT22;702;49.466;11.086;2023-07-22T09:13:03;23.20;64.00
1415;DHT22;702;49.466;11.086;2023-07-22T09:15:34;23.00;63.40
1415;DHT22;702;49.466;11.086;2023-07-22T09:18:04;22.40;62.80
1415;DHT22;702;49.466;11.086;2023-07-22T09:20:33;22.00;63.60
1415;DHT22;702;49.466;11.086;2023-07-22T09:23:01;22.50;62.70
1415;DHT22;702;49.466;11.086;2023-07-22T09:25:28;22.80;62.50
1415;DHT22;702;49.466;11.086;2023-07-22T09:27:59;22.80;61.30
1415;DHT22;702;49.466;11.086;2023-07-22T09:30:27;22.70;61.60
1415;DHT22;702;49.466;11.086;2023-07-22T09:32:57;22.20;61.80
1415;DHT22;702;49.466;11.086;2023-07-22T09:35:28;21.70;62.00
1415;DHT22;702;49.466;11.086;2023-07-22T09:37:57;22.00;62.60
1415;DHT22;702;49.466;11.086;2023-07-22T09:40:27;22.30;61.80
1415;DHT22;702;49.466;11.086;2023-07-22T09:42:55;22.30;61.10
1415;DHT22;702;49.466;11.086;2023-07-22T09:45:27;22.50;61.40
1415;DHT22;702;49.466;11.086;2023-07-22T09:47:56;23.00;60.30
1415;DHT22;702;49.466;11.086;2023-07-22T09:50:26;23.30;60.70
1415;DHT22;702;49.466;11.086;2023-07-22T09:52:55;23.30;59.90
1415;DHT22;702;49.466;11.086;2023-07-22T09:55:25;22.90;60.20
1415;DHT22;702;49.466;11.086;2023-07-22T09:57:55;22.90;60.40
1415;DHT22;702;49.466;11.086;2023-07-22T10:00:24;22.90;59.10
1415;DHT22;702;49.466;11.086;2023-07-22T10:02:57;23.00;59.10
1415;DHT22;702;49.466;11.086;2023-07-22T10:05:25;23.00;59.00
1415;DHT22;702;49.466;11.086;2023-07-22T10:07:57;23.20;58.80
1415;DHT22;702;49.466;11.086;2023-07-22T10:10:26;23.70;57.60
1415;DHT22;702;49.466;11.086;2023-07-22T10:12:58;24.30;57.20
1415;DHT22;702;49.466;11.086;2023-07-22T10:15:28;24.70;57.10
1415;DHT22;702;49.466;11.086;2023-07-22T10:17:56;24.70;55.60
1415;DHT22;702;49.466;11.086;2023-07-22T10:20:24;24.30;55.50
1415;DHT22;702;49.466;11.086;2023-07-22T10:22:54;24.00;56.20
1415;DHT22;702;49.466;11.086;2023-07-22T10:25:23;24.40;56.40
1415;DHT22;702;49.466;11.086;2023-07-22T10:27:51;24.70;55.40
1415;DHT22;702;49.466;11.086;2023-07-22T10:30:20;24.70;55.40
1415;DHT22;702;49.466;11.086;2023-07-22T10:32:48;24.20;55.60
1415;DHT22;702;49.466;11.086;2023-07-22T10:35:33;23.90;55.50
1415;DHT22;702;49.466;11.086;2023-07-22T10:38:09;23.20;56.30
1415;DHT22;702;49.466;11.086;2023-07-22T10:40:45;22.70;56.70
1415;DHT22;702;49.466;11.086;2023-07-22T10:43:15;22.80;57.20
1415;DHT22;702;49.466;11.086;2023-07-22T10:45:50;23.20;57.00
1415;DHT22;702;49.466;11.086;2023-07-22T10:48:18;23.40;56.60
1415;DHT22;702;49.466;11.086;2023-07-22T10:50:48;23.40;55.60
1415;DHT22;702;49.466;11.086;2023-07-22T10:53:28;23.50;55.90
1415;DHT22;702;49.466;11.086;2023-07-22T10:56:05;23.40;55.80
1415;DHT22;702;49.466;11.086;2023-07-22T10:58:35;23.60;56.20
1415;DHT22;702;49.466;11.086;2023-07-22T11:01:30;24.00;55.90
1415;DHT22;702;49.466;11.086;2023-07-22T11:04:08;24.50;55.20
1415;DHT22;702;49.466;11.086;2023-07-22T11:06:52;25.00;54.60
1415;DHT22;702;49.466;11.086;2023-07-22T11:09:38;25.40;54.40
1415;DHT22;702;49.466;11.086;2023-07-22T11:12:11;25.60;53.30
1415;DHT22;702;49.466;11.086;2023-07-22T11:14:45;25.40;53.30
1415;DHT22;702;49.466;11.086;2023-07-22T11:17:13;25.20;53.10
1415;DHT22;702;49.466;11.086;2023-07-22T11:19:41;25.10;52.60
1415;DHT22;702;49.466;11.086;2023-07-22T11:22:08;25.40;52.30
1415;DHT22;702;49.466;11.086;2023-07-22T11:24:37;25.40;51.70
1415;DHT22;702;49.466;11.086;2023-07-22T11:27:06;25.50;52.00
1415;DHT22;702;49.466;11.086;2023-07-22T11:29:34;25.40;51.40
1415;DHT22;702;49.466;11.086;2023-07-22T11:32:02;25.70;51.20
1415;DHT22;702;49.466;11.086;2023-07-22T11:34:30;25.90;50.90
1415;DHT22;702;49.466;11.086;2023-07-22T11:36:57;25.50;51.30
1415;DHT22;702;49.466;11.086;2023-07-22T11:39:26;25.60;51.20
1415;DHT22;702;49.466;11.086;2023-07-22T11:41:59;26.00;50.80
1415;DHT22;702;49.466;11.086;2023-07-22T11:44:29;25.90;50.70
1415;DHT22;702;49.466;11.086;2023-07-22T11:46:58;25.80;50.60
1415;DHT22;702;49.466;11.086;2023-07-22T11:49:27;25.50;50.70
1415;DHT22;702;49.466;11.086;2023-07-22T11:51:56;25.50;50.60
1415;DHT22;702;49.466;11.086;2023-07-22T11:54:25;25.00;51.10
1415;DHT22;702;49.466;11.086;2023-07-22T11:56:52;24.80;51.20
1415;DHT22;702;49.466;11.086;2023-07-22T11:59:34;24.80;50.90
1415;DHT22;702;49.466;11.086;2023-07-22T12:02:03;24.90;51.10
1415;DHT22;702;49.466;11.086;2023-07-22T12:04:31;24.70;51.20
1415;DHT22;702;49.466;11.086;2023-07-22T12:06:59;24.90;51.50
1415;DHT22;702;49.466;11.086;2023-07-22T12:09:26;25.00;51.50
1415;DHT22;702;49.466;11.086;2023-07-22T12:11:57;25.30;51.30
1415;DHT22;702;49.466;11.086;2023-07-22T12:14:34;25.40;51.50
1415;DHT22;702;49.466;11.086;2023-07-22T12:17:02;25.30;50.80
1415;DHT22;702;49.466;11.086;2023-07-22T12:19:29;25.40;51.20
1415;DHT22;702;49.466;11.086;2023-07-22T12:21:56;25.80;51.20
1415;DHT22;702;49.466;11.086;2023-07-22T12:24:24;26.20;50.60
1415;DHT22;702;49.466;11.086;2023-07-22T12:26:51;26.30;50.50
1415;DHT22;702;49.466;11.086;2023-07-22T12:29:18;25.90;50.40
1415;DHT22;702;49.466;11.086;2023-07-22T12:31:47;25.10;50.80
1415;DHT22;702;49.466;11.086;2023-07-22T12:34:14;24.60;50.80
1415;DHT22;702;49.466;11.086;2023-07-22T12:36:42;24.10;51.00
1415;DHT22;702;49.466;11.086;2023-07-22T12:39:09;23.80;51.60
1415;DHT22;702;49.466;11.086;2023-07-22T12:41:37;23.70;51.60
1415;DHT22;702;49.466;11.086;2023-07-22T12:44:05;23.90;52.00
1415;DHT22;702;49.466;11.086;2023-07-22T12:46:32;24.40;51.50
1415;DHT22;702;49.466;11.086;2023-07-22T12:49:01;24.30;51.20
1415;DHT22;702;49.466;11.086;2023-07-22T12:51:28;24.30;51.20
1415;DHT22;702;49.466;11.086;2023-07-22T12:53:55;24.40;51.10
1415;DHT22;702;49.466;11.086;2023-07-22T12:56:22;24.60;51.50
1415;DHT22;702;49.466;11.086;2023-07-22T12:58:49;24.90;51.00
1415;DHT22;702;49.466;11.086;2023-07-22T13:01:16;25.00;50.40
1415;DHT22;702;49.466;11.086;2023-07-22T13:03:44;24.80;50.70
1415;DHT22;702;49.466;11.086;2023-07-22T13:06:12;25.20;50.90
1415;DHT22;702;49.466;11.086;2023-07-22T13:08:40;25.50;50.40
1415;DHT22;702;49.466;11.086;2023-07-22T13:11:07;25.50;50.40
1415;DHT22;702;49.466;11.086;2023-07-22T13:13:34;25.70;50.70
1415;DHT22;702;49.466;11.086;2023-07-22T13:16:03;26.20;50.40
1415;DHT22;702;49.466;11.086;2023-07-22T13:18:30;26.70;50.10
1415;DHT22;702;49.466;11.086;2023-07-22T13:20:57;26.80;49.00
1415;DHT22;702;49.466;11.086;2023-07-22T13:23:26;26.30;48.90
1415;DHT22;702;49.466;11.086;2023-07-22T13:25:53;26.10;49.40
1415;DHT22;702;49.466;11.086;2023-07-22T13:28:20;26.10;48.60
1415;DHT22;702;49.466;11.086;2023-07-22T13:30:47;25.90;48.50
1415;DHT22;702;49.466;11.086;2023-07-22T13:33:14;25.80;48.60
1415;DHT22;702;49.466;11.086;2023-07-22T13:35:42;25.80;49.00
1415;DHT22;702;49.466;11.086;2023-07-22T13:38:09;25.90;49.60
1415;DHT22;702;49.466;11.086;2023-07-22T13:40:38;26.10;48.90
1415;DHT22;702;49.466;11.086;2023-07-22T13:43:05;26.10;49.20
1415;DHT22;702;49.466;11.086;2023-07-22T13:45:32;25.80;49.10
1415;DHT22;702;49.466;11.086;2023-07-22T13:48:00;25.30;49.40
1415;DHT22;702;49.466;11.086;2023-07-22T13:50:27;25.30;49.70
1415;DHT22;702;49.466;11.086;2023-07-22T13:52:54;25.40;49.80
1415;DHT22;702;49.466;11.086;2023-07-22T13:55:21;25.10;49.40
1415;DHT22;702;49.466;11.086;2023-07-22T13:57:50;24.90;50.00
1415;DHT22;702;49.466;11.086;2023-07-22T14:00:17;24.60;49.90
1415;DHT22;702;49.466;11.086;2023-07-22T14:02:44;24.40;49.90
1415;DHT22;702;49.466;11.086;2023-07-22T14:05:11;24.20;49.80
1415;DHT22;702;49.466;11.086;2023-07-22T14:07:38;24.10;50.10
1415;DHT22;702;49.466;11.086;2023-07-22T14:10:06;24.10;50.30
1415;DHT22;702;49.466;11.086;2023-07-22T14:12:34;24.20;50.20
1415;DHT22;702;49.466;11.086;2023-07-22T14:15:03;24.20;50.40
1415;DHT22;702;49.466;11.086;2023-07-22T14:17:31;24.60;50.30
1415;DHT22;702;49.466;11.086;2023-07-22T14:19:59;24.60;50.00
1415;DHT22;702;49.466;11.086;2023-07-22T14:22:28;24.80;50.60
1415;DHT22;702;49.466;11.086;2023-07-22T14:24:55;25.00;50.40
1415;DHT22;702;49.466;11.086;2023-07-22T14:27:22;25.20;50.40
1415;DHT22;702;49.466;11.086;2023-07-22T14:29:49;25.40;50.10
1415;DHT22;702;49.466;11.086;2023-07-22T14:32:18;25.50;49.70
1415;DHT22;702;49.466;11.086;2023-07-22T14:34:45;25.50;49.20
1415;DHT22;702;49.466;11.086;2023-07-22T14:37:12;25.70;49.10
1415;DHT22;702;49.466;11.086;2023-07-22T14:39:40;26.00;49.20
1415;DHT22;702;49.466;11.086;2023-07-22T14:42:07;26.00;48.60
1415;DHT22;702;49.466;11.086;2023-07-22T14:44:34;26.10;48.40
1415;DHT22;702;49.466;11.086;2023-07-22T14:47:01;26.20;48.60
1415;DHT22;702;49.466;11.086;2023-07-22T14:49:30;26.40;48.60
1415;DHT22;702;49.466;11.086;2023-07-22T14:51:57;26.40;48.30
1415;DHT22;702;49.466;11.086;2023-07-22T14:54:24;26.50;48.30
1415;DHT22;702;49.466;11.086;2023-07-22T14:56:51;26.60;48.10
1415;DHT22;702;49.466;11.086;2023-07-22T14:59:19;26.40;48.40
1415;DHT22;702;49.466;11.086;2023-07-22T15:01:46;26.30;48.90
1415;DHT22;702;49.466;11.086;2023-07-22T15:04:13;26.30;48.70
1415;DHT22;702;49.466;11.086;2023-07-22T15:06:42;26.40;48.90
1415;DHT22;702;49.466;11.086;2023-07-22T15:09:09;26.10;47.90
1415;DHT22;702;49.466;11.086;2023-07-22T15:11:37;25.90;48.20
1415;DHT22;702;49.466;11.086;2023-07-22T15:14:04;25.90;48.40
1415;DHT22;702;49.466;11.086;2023-07-22T15:16:32;26.10;48.40
1415;DHT22;702;49.466;11.086;2023-07-22T15:18:59;26.40;48.60
1415;DHT22;702;49.466;11.086;2023-07-22T15:21:26;26.10;48.50
1415;DHT22;702;49.466;11.086;2023-07-22T15:23:55;26.50;47.80
1415;DHT22;702;49.466;11.086;2023-07-22T15:26:22;26.50;47.20
1415;DHT22;702;49.466;11.086;2023-07-22T15:28:49;26.10;47.20
1415;DHT22;702;49.466;11.086;2023-07-22T15:31:17;25.80;47.70
1415;DHT22;702;49.466;11.086;2023-07-22T15:33:45;25.50;48.50
1415;DHT22;702;49.466;11.086;2023-07-22T15:36:12;25.30;48.60
1415;DHT22;702;49.466;11.086;2023-07-22T15:38:40;25.40;48.70
1415;DHT22;702;49.466;11.086;2023-07-22T15:41:09;25.50;48.50
1415;DHT22;702;49.466;11.086;2023-07-22T15:43:36;25.70;48.60
1415;DHT22;702;49.466;11.086;2023-07-22T15:46:04;26.00;48.70
1415;DHT22;702;49.466;11.086;2023-07-22T15:48:31;26.10;48.40
1415;DHT22;702;49.466;11.086;2023-07-22T15:50:58;26.20;48.50
1415;DHT22;702;49.466;11.086;2023-07-22T15:53:26;26.40;48.20
1415;DHT22;702;49.466;11.086;2023-07-22T15:55:53;26.10;48.30
1415;DHT22;702;49.466;11.086;2023-07-22T15:58:22;25.90;48.50
1415;DHT22;702;49.466;11.086;2023-07-22T16:00:49;25.70;48.10
1415;DHT22;702;49.466;11.086;2023-07-22T16:03:17;25.40;48.30
1415;DHT22;702;49.466;11.086;2023-07-22T16:05:44;25.20;48.40
1415;DHT22;702;49.466;11.086;2023-07-22T16:08:12;25.20;48.80
1415;DHT22;702;49.466;11.086;2023-07-22T16:10:39;25.40;48.40